createdAt,value
2019-04-23T00:02:04.143Z,8.40
2019-04-23T00:04:28.738Z,8.30
2019-04-23T00:07:07.948Z,8.30
2019-04-23T00:09:34.102Z,8.20
2019-04-23T00:12:11.991Z,8.20
2019-04-23T00:14:49.495Z,8.00
2019-04-23T00:17:18.057Z,8.00
2019-04-23T00:19:39.747Z,8.00
2019-04-23T00:22:20.495Z,7.90
2019-04-23T00:27:32.068Z,7.90
2019-04-23T00:29:56.461Z,8.00
2019-04-23T00:32:28.712Z,8.10
2019-04-23T00:35:00.777Z,7.90
2019-04-23T00:37:31.563Z,7.90
2019-04-23T00:40:00.946Z,8.00
2019-04-23T00:42:36.546Z,8.00
2019-04-23T00:45:01.770Z,7.90
2019-04-23T00:52:32.180Z,7.90
2019-04-23T00:57:41.282Z,7.70
2019-04-23T01:02:45.881Z,7.70
2019-04-23T01:07:47.563Z,7.50
2019-04-23T01:10:25.659Z,7.50
2019-04-23T01:15:26.223Z,7.70
2019-04-23T01:18:20.594Z,7.70
2019-04-23T01:20:29.163Z,7.60
2019-04-23T01:22:42.072Z,7.60
2019-04-23T01:25:24.716Z,7.50
2019-04-23T01:28:23.219Z,7.50
2019-04-23T01:30:55.384Z,7.50
2019-04-23T01:33:27.072Z,7.50
2019-04-23T01:36:03.078Z,7.50
2019-04-23T01:38:29.257Z,7.50
2019-04-23T01:40:53.774Z,7.60
2019-04-23T01:43:23.811Z,7.60
2019-04-23T01:45:56.167Z,7.60
2019-04-23T01:48:26.155Z,7.70
2019-04-23T01:53:34.799Z,7.60
2019-04-23T01:56:01.329Z,7.50
2019-04-23T01:58:38.538Z,7.40
2019-04-23T02:03:36.866Z,7.30
2019-04-23T02:06:11.702Z,7.20
2019-04-23T02:08:31.848Z,7.20
2019-04-23T02:11:10.619Z,7.20
2019-04-23T02:13:42.048Z,7.10
2019-04-23T02:16:10.191Z,7.10
2019-04-23T02:18:44.126Z,7.10
2019-04-23T02:21:16.927Z,7.20
2019-04-23T02:24:03.698Z,7.20
2019-04-23T02:26:36.849Z,7.10
2019-04-23T02:29:06.766Z,7.10
2019-04-23T02:39:04.844Z,7.10
2019-04-23T02:41:35.181Z,7.10
2019-04-23T02:44:14.651Z,7.10
2019-04-23T02:46:31.789Z,7.10
2019-04-23T02:49:21.479Z,7.20
2019-04-23T02:51:42.370Z,7.10
2019-04-23T02:56:49.343Z,7.20
2019-04-23T02:59:21.437Z,7.30
2019-04-23T03:01:39.731Z,7.30
2019-04-23T03:04:21.351Z,7.20
2019-04-23T03:06:48.150Z,7.10
2019-04-23T03:09:20.472Z,7.10
2019-04-23T03:11:50.102Z,7.00
2019-04-23T03:14:18.683Z,7.00
2019-04-23T03:17:02.689Z,7.00
2019-04-23T03:19:49.783Z,7.00
2019-04-23T03:22:15.266Z,7.00
2019-04-23T03:25:23.426Z,6.80
2019-04-23T03:27:40.550Z,6.80
2019-04-23T03:30:27.148Z,6.70
2019-04-23T03:35:10.493Z,6.70
2019-04-23T03:40:13.624Z,6.80
2019-04-23T03:42:57.737Z,6.90
2019-04-23T03:48:00.780Z,6.90
2019-04-23T03:50:32.570Z,6.80
2019-04-23T03:53:22.603Z,6.70
2019-04-23T03:55:52.247Z,6.80
2019-04-23T03:57:54.191Z,6.70
2019-04-23T04:00:39.624Z,6.70
2019-04-23T04:05:40.034Z,6.90
2019-04-23T04:08:16.032Z,6.80
2019-04-23T04:10:46.493Z,6.90
2019-04-23T04:13:07.266Z,6.90
2019-04-23T04:21:03.201Z,7.00
2019-04-23T04:23:22.631Z,7.00
2019-04-23T04:25:59.490Z,7.00
2019-04-23T04:28:17.738Z,7.00
2019-04-23T04:30:52.111Z,7.10
2019-04-23T04:33:41.324Z,7.00
2019-04-23T04:35:58.254Z,7.10
2019-04-23T04:38:36.941Z,7.10
2019-04-23T04:43:32.199Z,7.30
2019-04-23T04:48:35.544Z,7.50
2019-04-23T04:51:18.878Z,7.60
2019-04-23T04:53:46.111Z,7.80
2019-04-23T04:56:27.948Z,8.00
2019-04-23T04:58:40.732Z,8.20
2019-04-23T05:01:07.643Z,8.20
2019-04-23T05:03:36.443Z,8.20
2019-04-23T05:08:39.662Z,8.50
2019-04-23T05:11:24.166Z,8.70
2019-04-23T05:16:12.455Z,8.80
2019-04-23T05:18:47.432Z,8.70
2019-04-23T05:21:43.159Z,8.70
2019-04-23T05:23:47.068Z,8.80
2019-04-23T05:26:23.937Z,8.90
2019-04-23T05:31:20.309Z,9.20
2019-04-23T05:33:57.108Z,9.40
2019-04-23T05:41:36.855Z,9.70
2019-04-23T05:43:58.048Z,9.70
2019-04-23T05:46:37.737Z,9.80
2019-04-23T05:48:59.519Z,10.10
2019-04-23T05:54:00.223Z,10.70
2019-04-23T05:56:30.819Z,10.80
2019-04-23T06:04:11.724Z,11.50
2019-04-23T06:06:52.508Z,11.90
2019-04-23T06:09:12.762Z,12.60
2019-04-23T06:14:13.465Z,14.00
2019-04-23T06:16:44.602Z,14.50
2019-04-23T06:19:14.372Z,14.90
2019-04-23T06:21:50.930Z,14.90
2019-04-23T06:37:02.835Z,14.60
2019-04-23T06:39:22.123Z,14.70
2019-04-23T06:41:49.837Z,14.80
2019-04-23T06:44:25.508Z,14.90
2019-04-23T06:47:03.214Z,15.10
2019-04-23T06:49:30.738Z,14.60
2019-04-23T06:54:42.425Z,13.10
2019-04-23T06:57:14.948Z,13.10
2019-04-23T06:59:30.758Z,12.90
2019-04-23T07:02:06.676Z,12.70
2019-04-23T07:04:41.060Z,12.80
2019-04-23T07:09:35.225Z,12.80
2019-04-23T07:12:11.135Z,12.90
2019-04-23T07:14:44.791Z,13.20
2019-04-23T07:17:08.884Z,13.70
2019-04-23T07:19:42.501Z,14.30
2019-04-23T07:25:00.347Z,15.10
2019-04-23T07:27:14.879Z,15.30
2019-04-23T07:29:45.740Z,15.30
2019-04-23T07:32:11.825Z,15.20
2019-04-23T07:34:49.752Z,15.30
2019-04-23T07:37:20.329Z,15.40
2019-04-23T07:40:27.538Z,15.40
2019-04-23T07:43:03.393Z,15.50
2019-04-23T07:45:51.919Z,15.50
2019-04-23T07:48:16.638Z,15.30
2019-04-23T07:50:52.139Z,15.30
2019-04-23T07:53:29.567Z,15.30
2019-04-23T07:58:28.593Z,14.80
2019-04-23T08:01:05.489Z,14.90
2019-04-23T08:03:36.567Z,15.10
2019-04-23T08:06:05.970Z,15.10
2019-04-23T08:08:37.921Z,15.30
2019-04-23T08:11:30.626Z,15.50
2019-04-23T08:13:47.785Z,15.50
2019-04-23T08:16:24.714Z,15.30
2019-04-23T08:18:52.685Z,15.00
2019-04-23T08:21:14.785Z,15.00
2019-04-23T08:29:25.393Z,15.50
2019-04-23T08:32:06.910Z,15.40
2019-04-23T08:37:09.275Z,15.20
2019-04-23T08:42:30.243Z,15.60
2019-04-23T08:45:21.734Z,15.90
2019-04-23T08:48:01.301Z,16.20
2019-04-23T08:50:27.712Z,16.20
2019-04-23T08:53:10.647Z,15.60
2019-04-23T08:57:56.172Z,15.90
2019-04-23T09:00:37.287Z,15.80
2019-04-23T09:03:04.601Z,15.80
2019-04-23T09:10:41.166Z,15.70
2019-04-23T09:13:35.081Z,15.50
2019-04-23T09:15:45.415Z,15.70
2019-04-23T09:18:16.383Z,15.90
2019-04-23T09:20:37.855Z,16.40
2019-04-23T09:23:18.616Z,16.20
2019-04-23T09:25:48.042Z,16.30
2019-04-23T09:28:27.634Z,16.40
2019-04-23T09:30:54.192Z,16.50
2019-04-23T09:33:36.131Z,16.40
2019-04-23T09:36:13.278Z,16.50
2019-04-23T09:39:12.515Z,16.60
2019-04-23T09:41:51.483Z,16.80
2019-04-23T09:47:41.680Z,17.60
2019-04-23T09:50:10.770Z,17.90
2019-04-23T09:55:15.889Z,18.00
2019-04-23T09:57:44.954Z,18.10
2019-04-23T10:00:16.906Z,18.50
2019-04-23T10:02:29.889Z,18.20
2019-04-23T10:05:03.285Z,18.10
2019-04-23T10:07:33.534Z,18.40
2019-04-23T10:09:48.319Z,18.00
2019-04-23T10:12:19.959Z,18.10
2019-04-23T10:14:59.326Z,18.00
2019-04-23T10:17:22.181Z,18.10
2019-04-23T10:19:53.005Z,18.30
2019-04-23T10:22:23.062Z,18.50
2019-04-23T10:24:53.263Z,18.60
2019-04-23T10:27:23.245Z,18.90
2019-04-23T10:29:53.992Z,18.80
2019-04-23T10:32:25.274Z,19.50
2019-04-23T10:35:06.662Z,19.60
2019-04-23T10:37:37.840Z,20.20
2019-04-23T10:40:00.933Z,20.20
2019-04-23T10:42:30.717Z,19.70
2019-04-23T10:45:26.926Z,19.30
2019-04-23T10:48:49.430Z,19.40
2019-04-23T10:51:24.915Z,19.50
2019-04-23T10:54:23.342Z,19.60
2019-04-23T10:56:56.976Z,19.50
2019-04-23T10:59:34.924Z,19.70
2019-04-23T11:02:21.694Z,19.60
2019-04-23T11:04:47.266Z,19.20
2019-04-23T11:12:32.990Z,19.90
2019-04-23T11:14:57.918Z,20.00
2019-04-23T11:19:56.465Z,20.80
2019-04-23T11:25:00.106Z,20.30
2019-04-23T11:27:27.986Z,20.20
2019-04-23T11:30:00.288Z,20.20
2019-04-23T11:35:17.569Z,20.30
2019-04-23T11:38:16.004Z,20.50
2019-04-23T11:42:42.602Z,20.20
2019-04-23T11:45:14.987Z,20.00
2019-04-23T11:50:39.683Z,20.40
2019-04-23T11:52:48.637Z,20.30
2019-04-23T11:55:27.081Z,20.50
2019-04-23T11:57:54.863Z,20.50
2019-04-23T12:00:13.858Z,20.50
2019-04-23T12:02:56.217Z,20.90
2019-04-23T12:08:44.688Z,21.00
2019-04-23T12:14:09.568Z,20.80
2019-04-23T12:16:54.030Z,20.80
2019-04-23T12:19:33.270Z,20.90
2019-04-23T12:24:17.071Z,20.60
2019-04-23T12:26:44.272Z,20.50
2019-04-23T12:29:20.326Z,20.60
2019-04-23T12:31:49.175Z,20.70
2019-04-23T12:34:20.737Z,20.60
2019-04-23T12:37:06.426Z,20.90
2019-04-23T12:39:25.948Z,21.10
2019-04-23T12:42:02.191Z,21.20
2019-04-23T12:44:34.849Z,21.20
2019-04-23T12:47:05.591Z,21.20
2019-04-23T12:50:05.151Z,21.10
2019-04-23T12:52:12.892Z,21.40
2019-04-23T12:54:53.244Z,21.60
2019-04-23T12:57:14.608Z,22.00
2019-04-23T12:59:44.740Z,21.80
2019-04-23T13:02:16.101Z,21.80
2019-04-23T13:04:49.064Z,21.60
2019-04-23T13:07:23.478Z,21.70
2019-04-23T13:12:33.067Z,21.90
2019-04-23T13:14:49.015Z,21.70
2019-04-23T13:19:58.206Z,22.10
2019-04-23T13:22:23.999Z,22.10
2019-04-23T13:25:27.223Z,21.90
2019-04-23T13:28:02.945Z,22.10
2019-04-23T13:30:31.586Z,22.10
2019-04-23T13:33:01.137Z,22.20
2019-04-23T13:37:59.014Z,22.00
2019-04-23T13:40:33.631Z,22.20
2019-04-23T13:42:57.239Z,22.40
2019-04-23T13:45:53.089Z,22.30
2019-04-23T13:55:36.238Z,21.70
2019-04-23T14:03:12.177Z,22.20
2019-04-23T14:05:59.547Z,22.10
2019-04-23T14:11:05.414Z,22.30
2019-04-23T14:13:46.311Z,22.40
2019-04-23T14:16:33.087Z,22.50
2019-04-23T14:18:51.573Z,22.40
2019-04-23T14:21:14.279Z,22.40
2019-04-23T14:24:00.283Z,22.50
2019-04-23T14:28:43.518Z,22.60
2019-04-23T14:33:52.811Z,23.10
2019-04-23T14:36:17.339Z,23.00
2019-04-23T14:38:44.472Z,22.90
2019-04-23T14:46:47.194Z,22.40
2019-04-23T14:48:51.778Z,22.70
2019-04-23T14:51:39.512Z,22.70
2019-04-23T14:53:47.886Z,22.40
2019-04-23T14:56:20.139Z,22.40
2019-04-23T15:03:49.415Z,22.60
2019-04-23T15:06:36.313Z,22.90
2019-04-23T15:09:04.258Z,22.90
2019-04-23T15:16:33.515Z,22.50
2019-04-23T15:22:08.418Z,22.40
2019-04-23T15:24:35.213Z,22.40
2019-04-23T15:29:22.807Z,23.00
2019-04-23T15:32:14.937Z,23.60
2019-04-23T15:34:30.534Z,22.90
2019-04-23T15:37:25.205Z,22.70
2019-04-23T15:44:40.705Z,22.00
2019-04-23T15:47:20.115Z,21.60
2019-04-23T15:49:48.919Z,21.30
2019-04-23T15:52:10.721Z,21.30
2019-04-23T15:54:48.346Z,21.40
2019-04-23T15:57:27.593Z,21.90
2019-04-23T16:00:01.701Z,22.20
2019-04-23T16:01:51.171Z,22.00
2019-04-23T16:04:20.819Z,21.80
2019-04-23T16:06:50.021Z,21.90
2019-04-23T16:09:50.896Z,21.90
2019-04-23T16:12:13.287Z,22.20
2019-04-23T16:14:58.421Z,21.70
2019-04-23T16:20:23.453Z,21.10
2019-04-23T16:22:39.722Z,21.00
2019-04-23T16:25:14.708Z,20.80
2019-04-23T16:27:44.497Z,20.60
2019-04-23T16:33:05.877Z,20.60
2019-04-23T16:35:33.008Z,20.60
2019-04-23T16:38:21.600Z,20.60
2019-04-23T16:43:10.121Z,20.50
2019-04-23T16:45:45.437Z,20.50
2019-04-23T16:48:20.261Z,20.40
2019-04-23T16:50:57.865Z,20.40
2019-04-23T16:53:16.149Z,20.50
2019-04-23T16:58:21.908Z,20.40
2019-04-23T17:00:57.233Z,20.30
2019-04-23T17:03:23.425Z,20.20
2019-04-23T17:05:50.687Z,20.10
2019-04-23T17:08:36.183Z,20.20
2019-04-23T17:10:53.349Z,20.30
2019-04-23T17:13:20.922Z,20.40
2019-04-23T17:21:09.737Z,20.10
2019-04-23T17:23:31.691Z,20.00
2019-04-23T17:25:57.257Z,19.80
2019-04-23T17:28:21.889Z,19.80
2019-04-23T17:31:20.792Z,19.70
2019-04-23T17:33:35.673Z,19.70
2019-04-23T17:36:30.614Z,19.80
2019-04-23T17:39:14.547Z,19.80
2019-04-23T17:42:12.551Z,19.70
2019-04-23T17:44:46.909Z,19.80
2019-04-23T17:47:14.180Z,19.90
2019-04-23T17:49:53.394Z,19.80
2019-04-23T17:54:51.078Z,19.60
2019-04-23T17:57:26.019Z,19.60
2019-04-23T18:05:02.836Z,19.40
2019-04-23T18:07:37.756Z,19.30
2019-04-23T18:10:12.037Z,19.20
2019-04-23T18:15:04.998Z,19.10
2019-04-23T18:17:43.113Z,19.10
2019-04-23T18:20:29.628Z,19.20
2019-04-23T18:27:54.217Z,18.90
2019-04-23T18:35:51.291Z,18.70
2019-04-23T18:38:31.935Z,18.60
2019-04-23T18:43:29.653Z,18.70
2019-04-23T18:51:03.330Z,18.70
2019-04-23T18:53:48.582Z,18.70
2019-04-23T19:01:27.964Z,18.60
2019-04-23T19:06:42.472Z,18.30
2019-04-23T19:09:23.863Z,18.00
2019-04-23T19:12:39.499Z,17.40
2019-04-23T19:25:06.532Z,16.60
2019-04-23T19:27:40.435Z,16.50
2019-04-23T19:30:16.428Z,16.60
2019-04-23T19:32:49.019Z,16.50
2019-04-23T19:35:33.592Z,16.30
2019-04-23T19:40:21.025Z,15.90
2019-04-23T19:42:54.181Z,16.00
2019-04-23T19:45:24.495Z,15.90
2019-04-23T19:48:13.434Z,15.90
2019-04-23T19:50:29.909Z,15.80
2019-04-23T19:55:21.459Z,15.80
2019-04-23T19:58:07.131Z,15.90
2019-04-23T20:00:39.370Z,15.90
2019-04-23T20:05:35.610Z,15.90
2019-04-23T20:08:04.401Z,15.80
2019-04-23T20:10:36.877Z,15.70
2019-04-23T20:13:07.153Z,15.70
2019-04-23T20:15:53.462Z,15.70
2019-04-23T20:18:13.374Z,15.70
2019-04-23T20:20:49.518Z,15.70
2019-04-23T20:23:11.870Z,15.80
2019-04-23T20:26:10.303Z,15.70
2019-04-23T20:45:55.878Z,15.50
2019-04-23T20:59:32.055Z,15.80
2019-04-23T21:06:05.804Z,16.50
2019-04-23T21:08:53.769Z,16.70
2019-04-23T21:11:06.309Z,16.80
2019-04-23T21:31:08.712Z,17.30
